Time;durP1;ratioP1;P1;durP2;ratioP2;P2;SDS_P1;SDS_P2;PMS_P1;PMS_P2;Temp;Humidity;BMP_temperature;BMP_pressure;BME280_temperature;BME280_humidity;BME280_pressure;Samples;Min_cycle;Max_cycle;Signal;HPM_P1;HPM_P2
2021/05/06 01:14:13;;;;;;;4.18;1.90;;;;;;;18.54;37.88;100008.28;30930387;28;20396;-60
2021/05/06 01:29:26;;;;;;;5.40;2.03;;;;;;;18.52;37.87;100004.94;30993066;28;20511;-59
2021/05/06 01:44:53;;;;;;;4.82;2.00;;;;;;;18.49;38.39;100012.31;30951424;28;20377;-61
2021/05/06 01:59:54;;;;;;;3.80;1.98;;;;;;;18.45;37.96;100005.69;30884760;28;20063;-58
2021/05/06 02:14:59;;;;;;;4.65;2.03;;;;;;;18.42;38.21;99996.28;30893958;28;20552;-60
2021/05/06 02:30:00;;;;;;;5.38;1.95;;;;;;;18.41;38.36;100013.03;30891998;28;20050;-60
2021/05/06 02:45:02;;;;;;;4.17;1.80;;;;;;;18.36;38.00;100008.19;30936239;28;20057;-60
2021/05/06 03:31:03;;;;;;;4.00;1.50;;;;;;;18.30;38.12;100024.56;31008542;28;20035;-61
2021/05/06 03:46:28;;;;;;;4.93;1.88;;;;;;;18.30;38.47;100036.88;30950284;28;20517;-61
2021/05/06 05:18:05;;;;;;;3.13;1.35;;;;;;;18.36;37.75;100073.97;31000239;28;20050;-60
2021/05/06 05:33:12;;;;;;;4.72;1.40;;;;;;;18.38;37.60;100073.84;30993438;28;20018;-60
2021/05/06 06:03:14;;;;;;;4.75;1.60;;;;;;;18.64;37.42;100063.50;30959518;28;19924;-61
2021/05/06 06:18:22;;;;;;;3.03;1.27;;;;;;;18.66;37.06;100065.97;30976399;28;20038;-61
2021/05/06 06:33:23;;;;;;;5.90;1.92;;;;;;;18.65;39.05;100073.06;30993912;28;20285;-61
2021/05/06 06:48:24;;;;;;;8.65;2.45;;;;;;;15.24;32.00;100058.84;30988056;28;20034;-61
2021/05/06 07:03:25;;;;;;;5.88;1.80;;;;;;;13.37;33.72;100067.81;30997298;28;20122;-57
2021/05/06 07:18:27;;;;;;;6.05;1.88;;;;;;;12.93;33.58;100072.59;30994433;28;20035;-58
2021/05/06 07:33:29;;;;;;;5.75;1.73;;;;;;;15.91;33.94;100063.00;30980820;28;20046;-58
2021/05/06 07:48:30;;;;;;;8.48;1.70;;;;;;;17.50;32.78;100066.03;30970641;28;20412;-57
2021/05/06 08:03:31;;;;;;;6.25;1.60;;;;;;;18.18;31.91;100060.72;30987548;28;20404;-58
2021/05/06 08:18:31;;;;;;;4.43;1.50;;;;;;;18.56;33.19;100058.97;30983447;28;20508;-60
2021/05/06 08:33:32;;;;;;;9.40;2.00;;;;;;;18.90;33.44;100058.44;30992099;28;20297;-57
2021/05/06 08:48:33;;;;;;;4.40;1.40;;;;;;;19.23;33.23;100056.97;30982487;28;20712;-56
2021/05/06 09:03:34;;;;;;;7.27;2.40;;;;;;;19.18;33.27;100069.75;30964308;28;20623;-56
2021/05/06 09:18:45;;;;;;;5.60;2.40;;;;;;;19.16;34.21;100070.88;30984859;28;20805;-59
2021/05/06 09:33:48;;;;;;;9.30;5.53;;;;;;;19.00;34.09;100071.53;30978929;28;20290;-58
2021/05/06 09:48:55;;;;;;;7.80;4.05;;;;;;;19.80;33.71;100047.97;30984858;28;20050;-58
2021/05/06 10:03:57;;;;;;;5.88;2.80;;;;;;;19.53;33.78;100039.13;30972513;28;20046;-60
2021/05/06 10:18:58;;;;;;;6.38;3.40;;;;;;;19.24;35.09;100056.00;30995596;28;20113;-55
2021/05/06 10:33:59;;;;;;;6.27;2.90;;;;;;;19.01;36.21;100105.63;31009133;28;20488;-51
2021/05/06 10:49:02;;;;;;;5.17;2.87;;;;;;;19.18;34.68;100121.63;30989758;28;20294;-54
2021/05/06 11:04:04;;;;;;;7.03;2.65;;;;;;;20.00;33.53;100099.56;30999370;28;20301;-55
2021/05/06 11:19:05;;;;;;;4.95;2.88;;;;;;;20.91;31.95;100077.16;31003124;28;20054;-51
2021/05/06 11:34:29;;;;;;;5.00;2.60;;;;;;;21.28;31.54;100068.03;31009180;28;20108;-51
2021/05/06 11:49:30;;;;;;;4.05;2.40;;;;;;;21.36;31.99;100040.78;30969099;28;20386;-55
2021/05/06 12:04:34;;;;;;;5.03;2.37;;;;;;;21.27;32.48;100040.78;30989159;28;20510;-51
2021/05/06 12:19:41;;;;;;;6.60;2.60;;;;;;;21.36;32.92;100023.09;30996000;28;20301;-55
2021/05/06 12:34:42;;;;;;;5.10;2.80;;;;;;;21.32;33.69;100006.72;30995786;28;20038;-56
2021/05/06 12:49:44;;;;;;;4.27;2.30;;;;;;;21.07;33.87;99997.13;30991034;28;20040;-55
2021/05/06 13:04:52;;;;;;;4.32;2.53;;;;;;;20.74;35.14;99986.50;30980565;28;20309;-57
2021/05/06 13:19:54;;;;;;;4.10;2.45;;;;;;;20.64;33.40;99970.78;30981974;28;20050;-54
2021/05/06 13:34:55;;;;;;;5.97;2.80;;;;;;;20.47;34.59;99971.69;31003640;28;20047;-53
2021/05/06 13:49:56;;;;;;;4.80;2.70;;;;;;;20.45;34.82;99958.63;31006828;28;20121;-51
2021/05/06 14:04:57;;;;;;;6.97;3.80;;;;;;;20.62;35.29;99959.56;31003467;28;20293;-68
2021/05/06 14:19:58;;;;;;;6.63;3.40;;;;;;;20.51;35.63;99947.44;31003263;28;20395;-67
2021/05/06 14:34:59;;;;;;;5.43;3.00;;;;;;;20.39;36.15;99932.88;31004986;28;20297;-63
2021/05/06 14:50:00;;;;;;;6.10;2.83;;;;;;;20.47;36.54;99935.53;31008760;28;20712;-69
2021/05/06 15:05:01;;;;;;;7.73;3.00;;;;;;;20.42;37.33;99929.09;31010655;28;20290;-70
2021/05/06 15:20:03;;;;;;;6.00;2.55;;;;;;;20.35;37.38;99921.00;31008324;28;20715;-67
2021/05/06 15:35:05;;;;;;;3.95;2.50;;;;;;;20.18;36.95;99928.03;30993575;28;20042;-65
2021/05/06 15:50:08;;;;;;;4.25;2.45;;;;;;;20.11;35.73;99920.88;31017620;28;20096;-64
2021/05/06 16:05:14;;;;;;;5.78;3.00;;;;;;;19.95;35.70;99922.47;30979121;28;20034;-63
2021/05/06 16:20:27;;;;;;;3.70;2.30;;;;;;;18.17;27.53;99905.72;30966431;28;20408;-60
2021/05/06 16:35:31;;;;;;;7.55;3.83;;;;;;;17.33;30.25;99893.31;30983998;28;20042;-57
2021/05/06 16:50:32;;;;;;;4.43;2.47;;;;;;;17.00;33.38;99899.88;30972402;28;20567;-60
2021/05/06 17:05:33;;;;;;;3.43;1.80;;;;;;;18.23;34.63;99878.81;30981479;28;20042;-60
2021/05/06 17:20:34;;;;;;;5.70;1.97;;;;;;;18.88;34.14;99870.78;30986756;28;20299;-57
2021/05/06 17:35:35;;;;;;;4.93;1.90;;;;;;;19.12;33.76;99875.44;30992599;28;20290;-60
2021/05/06 17:50:36;;;;;;;5.40;2.10;;;;;;;19.22;34.40;99868.28;30983561;28;20309;-62
2021/05/06 18:05:37;;;;;;;5.47;2.07;;;;;;;19.20;34.36;99877.31;31026198;28;20305;-63
2021/05/06 18:20:38;;;;;;;5.85;2.03;;;;;;;19.13;34.69;99885.00;31022659;28;20305;-63
2021/05/06 18:35:39;;;;;;;5.90;2.40;;;;;;;19.09;35.17;99873.09;30979087;28;20048;-58
2021/05/06 18:50:40;;;;;;;5.07;2.50;;;;;;;19.13;36.84;99863.09;30983878;28;20297;-57
2021/05/06 19:05:44;;;;;;;5.45;2.20;;;;;;;19.15;37.62;99890.09;30996976;28;21940;-61
2021/05/06 19:20:45;;;;;;;4.60;1.98;;;;;;;19.13;38.42;99903.44;31002144;28;20093;-61
2021/05/06 19:35:47;;;;;;;4.07;2.40;;;;;;;19.11;38.77;99899.31;30996374;28;20139;-58
2021/05/06 19:50:48;;;;;;;3.08;1.95;;;;;;;19.10;39.09;99897.63;30992595;28;20289;-58
2021/05/06 20:05:49;;;;;;;5.07;2.30;;;;;;;19.08;39.52;99895.16;30968538;28;20041;-62
2021/05/06 20:21:12;;;;;;;5.33;3.70;;;;;;;18.81;34.04;99894.25;30976071;28;20301;-58
2021/05/06 20:36:13;;;;;;;5.95;3.55;;;;;;;18.36;36.12;99902.97;30984712;28;20368;-59
2021/05/06 20:51:14;;;;;;;5.30;3.50;;;;;;;18.53;36.70;99906.63;30996221;28;20038;-61
2021/05/06 21:06:15;;;;;;;5.23;3.27;;;;;;;18.61;37.27;99901.44;30994925;28;20292;-61
2021/05/06 21:21:16;;;;;;;4.93;3.20;;;;;;;18.63;37.91;99903.91;30993974;28;20299;-60
2021/05/06 21:36:17;;;;;;;5.07;3.10;;;;;;;18.61;37.74;99893.53;30972570;28;20285;-61
2021/05/06 21:51:19;;;;;;;6.65;4.80;;;;;;;18.51;36.11;99877.00;30976267;28;20309;-61
2021/05/06 22:06:20;;;;;;;8.88;3.70;;;;;;;18.47;37.77;99861.66;30986410;28;20049;-61
2021/05/06 22:21:30;;;;;;;5.70;3.83;;;;;;;18.45;38.18;99856.53;31073122;28;20484;-61
2021/05/06 22:36:31;;;;;;;6.40;3.67;;;;;;;18.43;38.32;99858.47;31038092;28;20038;-60
2021/05/06 22:51:32;;;;;;;10.70;7.33;;;;;;;18.40;38.03;99854.34;30923829;28;20046;-60
2021/05/06 23:06:33;;;;;;;8.50;5.80;;;;;;;18.39;38.07;99843.94;31056336;28;20297;-60
2021/05/06 23:21:34;;;;;;;10.00;5.57;;;;;;;18.36;37.98;99850.34;31123764;28;20411;-61
2021/05/06 23:36:35;;;;;;;7.23;5.23;;;;;;;18.36;38.00;99844.25;31127794;28;20293;-61
2021/05/06 23:51:36;;;;;;;7.90;5.47;;;;;;;18.32;38.17;99843.72;31027837;28;20297;-62
